createdAt,value
2022-10-29T00:00:38.765Z,1090.46
2022-10-29T00:01:38.860Z,1090.47
2022-10-29T00:02:38.810Z,1090.19
2022-10-29T00:03:38.783Z,1090.17
2022-10-29T00:04:38.759Z,1090.06
2022-10-29T00:05:38.763Z,1089.66
2022-10-29T00:06:44.865Z,1089.78
2022-10-29T00:07:38.765Z,1089.55
2022-10-29T00:08:38.770Z,1089.34
2022-10-29T00:09:38.774Z,1088.88
2022-10-29T00:10:38.780Z,1088.34
2022-10-29T00:11:38.774Z,1087.98
2022-10-29T00:12:38.773Z,1087.23
2022-10-29T00:13:38.799Z,1086.73
2022-10-29T00:14:38.782Z,1086.47
2022-10-29T00:15:38.784Z,1086.22
2022-10-29T00:16:38.782Z,1086.13
2022-10-29T00:17:41.550Z,1085.75
2022-10-29T00:18:38.785Z,1085.75
2022-10-29T00:19:38.788Z,1085.52
2022-10-29T00:20:38.792Z,1085.43
2022-10-29T00:21:38.793Z,1085.29
2022-10-29T00:22:38.793Z,1085.28
2022-10-29T00:23:38.794Z,1084.88
2022-10-29T00:24:38.796Z,1084.96
2022-10-29T00:25:38.794Z,1084.54
2022-10-29T00:26:38.818Z,1084.33
2022-10-29T00:27:38.802Z,1084.45
2022-10-29T00:28:41.896Z,1084.53
2022-10-29T00:29:38.804Z,1084.39
2022-10-29T00:30:38.808Z,1084.39
2022-10-29T00:31:38.917Z,1084.32
2022-10-29T00:32:38.807Z,1084
2022-10-29T00:33:38.816Z,1083.92
2022-10-29T00:34:38.814Z,1083.92
2022-10-29T00:35:38.816Z,1083.86
2022-10-29T00:36:38.813Z,1083.7
2022-10-29T00:37:38.819Z,1083.57
2022-10-29T00:38:38.820Z,1083.46
2022-10-29T00:39:38.822Z,1082.99
2022-10-29T00:40:38.825Z,1082.54
2022-10-29T00:41:38.827Z,1082.21
2022-10-29T00:42:38.824Z,1081.98
2022-10-29T00:43:38.834Z,1081.71
2022-10-29T00:44:41.837Z,1081.06
2022-10-29T00:45:38.831Z,1080.59
2022-10-29T00:47:38.836Z,1080.31
2022-10-29T00:48:38.846Z,1080.02
2022-10-29T00:49:38.841Z,1079.71
2022-10-29T00:50:38.859Z,1079.33
2022-10-29T00:51:38.842Z,1078.81
2022-10-29T00:52:38.844Z,1078.53
2022-10-29T00:53:38.846Z,1078.32
2022-10-29T00:54:41.835Z,1078.29
2022-10-29T00:55:38.873Z,1078.02
2022-10-29T00:56:38.853Z,1077.83
2022-10-29T00:57:38.849Z,1077.98
2022-10-29T00:58:38.856Z,1077.77
2022-10-29T00:59:39.038Z,1077.92
2022-10-29T01:00:38.948Z,1077.97
2022-10-29T01:01:38.967Z,1077.94
2022-10-29T01:02:39.048Z,1077.85
2022-10-29T01:03:38.861Z,1077.9
2022-10-29T01:04:38.891Z,1077.94
2022-10-29T01:05:38.885Z,1078.12
2022-10-29T01:06:39.002Z,1078.17
2022-10-29T01:07:38.896Z,1078.13
2022-10-29T01:08:38.873Z,1078.22
2022-10-29T01:09:38.887Z,1078.24
2022-10-29T01:10:39.099Z,1077.93
2022-10-29T01:11:38.918Z,1077.82
2022-10-29T01:12:38.907Z,1077.5
2022-10-29T01:13:38.885Z,1077.06
2022-10-29T01:14:38.879Z,1076.49
2022-10-29T01:15:38.940Z,1076.07
2022-10-29T01:16:38.935Z,1075.52
2022-10-29T01:17:38.885Z,1074.88
2022-10-29T01:18:38.982Z,1074.51
2022-10-29T01:19:38.910Z,1074.38
2022-10-29T01:20:38.943Z,1073.84
2022-10-29T01:21:38.890Z,1073.54
2022-10-29T01:22:38.894Z,1073.23
2022-10-29T01:23:38.895Z,1072.88
2022-10-29T01:24:38.902Z,1072.56
2022-10-29T01:25:38.951Z,1071.89
2022-10-29T01:26:38.904Z,1071.77
2022-10-29T01:27:38.910Z,1071.68
2022-10-29T01:28:38.906Z,1071.61
2022-10-29T01:29:38.921Z,1071.75
2022-10-29T01:30:38.942Z,1071.52
2022-10-29T01:31:38.920Z,1071.06
2022-10-29T01:32:38.952Z,1070.47
2022-10-29T01:33:38.911Z,1070.08
2022-10-29T01:34:38.915Z,1069.56
2022-10-29T01:35:38.940Z,1069
2022-10-29T01:36:38.918Z,1068.6
2022-10-29T01:37:38.919Z,1067.87
2022-10-29T01:38:38.919Z,1067.76
2022-10-29T01:39:38.926Z,1067.45
2022-10-29T01:40:38.947Z,1067.43
2022-10-29T01:41:38.926Z,1067.1
2022-10-29T01:42:38.929Z,1066.79
2022-10-29T01:43:38.929Z,1066.52
2022-10-29T01:44:38.943Z,1066.49
2022-10-29T01:45:38.969Z,1066.28
2022-10-29T01:46:38.938Z,1066
2022-10-29T01:47:38.936Z,1065.58
2022-10-29T01:48:38.962Z,1065.75
2022-10-29T01:49:38.937Z,1065.88
2022-10-29T01:50:38.966Z,1065.88
2022-10-29T01:51:38.942Z,1066
2022-10-29T01:52:38.951Z,1065.75
2022-10-29T01:53:38.971Z,1065.73
2022-10-29T01:54:38.947Z,1065.18
2022-10-29T01:55:38.973Z,1065.34
2022-10-29T01:56:38.952Z,1064.8
2022-10-29T01:57:38.954Z,1064.36
2022-10-29T02:01:39.000Z,1063.4
2022-10-29T02:02:38.965Z,1063.65
2022-10-29T02:03:38.966Z,1063.48
2022-10-29T02:04:38.990Z,1063.32
2022-10-29T02:05:38.966Z,1063.39
2022-10-29T02:06:38.993Z,1063.24
2022-10-29T02:07:38.972Z,1063.1
2022-10-29T02:08:38.969Z,1063.06
2022-10-29T02:09:38.975Z,1063.18
2022-10-29T02:10:38.975Z,1063.31
2022-10-29T02:11:39.526Z,1063.25
2022-10-29T02:12:38.981Z,1063.2
2022-10-29T02:13:38.989Z,1063.05
2022-10-29T02:14:38.983Z,1063.18
2022-10-29T02:15:38.984Z,1062.95
2022-10-29T02:16:38.983Z,1062.86
2022-10-29T02:17:38.987Z,1062.87
2022-10-29T02:18:38.994Z,1062.89
2022-10-29T02:19:38.988Z,1062.15
2022-10-29T02:20:39.018Z,1062.24
2022-10-29T02:21:38.992Z,1062.12
2022-10-29T02:22:40.136Z,1061.82
2022-10-29T02:23:39.003Z,1061.9
2022-10-29T02:24:39.001Z,1061.66
2022-10-29T02:25:39.096Z,1061.59
2022-10-29T02:26:39.008Z,1061.05
2022-10-29T02:27:39.008Z,1060.75
2022-10-29T02:28:39.017Z,1060.77
2022-10-29T02:29:39.009Z,1060.45
2022-10-29T02:30:39.012Z,1060.21
2022-10-29T02:31:39.017Z,1060.39
2022-10-29T02:32:39.018Z,1060.36
2022-10-29T02:33:42.148Z,1060.08
2022-10-29T02:34:39.013Z,1059.93
2022-10-29T02:35:39.019Z,1059.55
2022-10-29T02:36:39.050Z,1059.53
2022-10-29T02:37:39.023Z,1059.02
2022-10-29T02:38:39.057Z,1058.81
2022-10-29T02:39:39.022Z,1058.08
2022-10-29T02:40:39.026Z,1058.13
2022-10-29T02:41:39.039Z,1057.44
2022-10-29T02:42:39.050Z,1056.75
2022-10-29T02:43:39.031Z,1056.59
2022-10-29T02:44:41.913Z,1056.06
2022-10-29T02:45:39.074Z,1055.78
2022-10-29T02:46:39.040Z,1055.64
2022-10-29T02:47:39.050Z,1055.37
2022-10-29T02:48:39.047Z,1054.97
2022-10-29T02:49:39.041Z,1054.86
2022-10-29T02:50:39.045Z,1054.66
2022-10-29T02:51:39.061Z,1054.03
2022-10-29T02:52:39.068Z,1053.49
2022-10-29T02:53:39.048Z,1053.17
2022-10-29T02:54:39.049Z,1052.34
2022-10-29T02:55:39.067Z,1051.6
2022-10-29T02:56:39.051Z,1050.6
2022-10-29T02:57:39.054Z,1050.06
2022-10-29T02:58:39.056Z,1049.86
2022-10-29T02:59:39.061Z,1049.45
2022-10-29T03:00:39.060Z,1049.22
2022-10-29T03:01:39.186Z,1048.95
2022-10-29T03:02:39.117Z,1048.54
2022-10-29T03:03:39.062Z,1048.32
2022-10-29T03:04:39.081Z,1048.27
2022-10-29T03:05:39.067Z,1048.04
2022-10-29T03:06:39.070Z,1048.12
2022-10-29T03:07:39.091Z,1048.31
2022-10-29T03:08:39.101Z,1048.19
2022-10-29T03:09:39.073Z,1047.78
2022-10-29T03:10:39.095Z,1047.81
2022-10-29T03:11:39.078Z,1047.35
2022-10-29T03:12:39.075Z,1047.66
2022-10-29T03:13:39.114Z,1047.46
2022-10-29T03:14:39.082Z,1047.41
2022-10-29T03:15:39.085Z,1047.48
2022-10-29T03:16:39.093Z,1047.31
2022-10-29T03:17:39.090Z,1047.33
2022-10-29T03:18:39.089Z,1047.26
2022-10-29T03:19:39.113Z,1047.31
2022-10-29T03:20:39.096Z,1046.82
2022-10-29T03:21:39.096Z,1046.32
2022-10-29T03:22:39.104Z,1045.66
2022-10-29T03:23:39.100Z,1044.85
2022-10-29T03:24:39.127Z,1044.36
2022-10-29T03:25:39.100Z,1044.21
2022-10-29T03:26:39.199Z,1043.56
2022-10-29T03:27:39.106Z,1043.11
2022-10-29T03:28:39.148Z,1042.51
2022-10-29T03:29:39.105Z,1042.17
2022-10-29T03:30:39.112Z,1041.86
2022-10-29T03:31:39.112Z,1041.48
2022-10-29T03:32:39.114Z,1041.15
2022-10-29T03:33:39.117Z,1040.83
2022-10-29T03:34:39.117Z,1040.44
2022-10-29T03:35:39.149Z,1040.32
2022-10-29T03:36:39.124Z,1040.47
2022-10-29T03:37:39.240Z,1040.29
2022-10-29T03:38:39.123Z,1040.51
2022-10-29T03:39:39.125Z,1040.78
2022-10-29T03:40:39.159Z,1040.57
2022-10-29T03:41:39.127Z,1040.81
2022-10-29T03:42:39.137Z,1040.54
2022-10-29T03:43:39.133Z,1040.48
2022-10-29T03:44:39.142Z,1040.33
2022-10-29T03:45:39.134Z,1039.55
2022-10-29T03:46:39.135Z,1039.15
2022-10-29T03:47:39.139Z,1038.4
2022-10-29T03:48:39.139Z,1038.19
2022-10-29T03:49:39.144Z,1037.81
2022-10-29T03:50:39.144Z,1037.9
2022-10-29T03:51:39.144Z,1037.57
2022-10-29T03:52:39.144Z,1037.5
2022-10-29T03:53:39.149Z,1037.18
2022-10-29T03:54:39.151Z,1036.86
2022-10-29T03:55:39.150Z,1036.71
2022-10-29T03:56:39.237Z,1036.58
2022-10-29T03:57:39.154Z,1036.7
2022-10-29T03:58:39.155Z,1036.74
2022-10-29T03:59:39.156Z,1037.17
2022-10-29T04:00:39.166Z,1037.01
2022-10-29T04:01:39.229Z,1036.78
2022-10-29T04:02:39.316Z,1036.23
2022-10-29T04:03:39.168Z,1036.2
2022-10-29T04:04:39.167Z,1036.13
2022-10-29T04:05:39.166Z,1035.9
2022-10-29T04:06:39.170Z,1035.54
2022-10-29T04:07:39.175Z,1035.03
2022-10-29T04:08:39.170Z,1035.22
2022-10-29T04:09:39.178Z,1034.56
2022-10-29T04:10:39.173Z,1034.54
2022-10-29T04:11:39.178Z,1034.54
2022-10-29T04:12:39.204Z,1034.05
2022-10-29T04:13:39.178Z,1034.43
2022-10-29T04:14:42.792Z,1033.94
2022-10-29T04:15:39.190Z,1033.73
2022-10-29T04:16:39.189Z,1033.19
2022-10-29T04:17:39.186Z,1033.71
2022-10-29T04:18:39.193Z,1033.71
2022-10-29T04:19:39.190Z,1033.75
2022-10-29T04:21:05.944Z,1033.67
2022-10-29T04:28:41.131Z,1030.71
2022-10-29T04:28:53.005Z,1030.77
2022-10-29T04:29:52.983Z,1030.62
2022-10-29T04:30:52.990Z,1030.91
2022-10-29T04:31:53.008Z,1030.6
2022-10-29T04:32:53.203Z,1030.37
2022-10-29T04:33:52.987Z,1030.15
2022-10-29T04:34:52.993Z,1029.84
2022-10-29T04:35:52.994Z,1029.73
2022-10-29T04:36:52.993Z,1029.39
2022-10-29T04:37:56.149Z,1029.15
2022-10-29T04:38:52.995Z,1028.93
2022-10-29T04:39:53.001Z,1028.55
2022-10-29T04:40:53.004Z,1028.12
2022-10-29T04:41:53.001Z,1028
2022-10-29T04:42:53.276Z,1027.72
2022-10-29T04:43:53.004Z,1027.53
2022-10-29T04:44:53.010Z,1027.62
2022-10-29T04:45:53.011Z,1027.23
2022-10-29T04:46:53.013Z,1026.98
2022-10-29T04:47:53.353Z,1027.05
2022-10-29T04:48:53.068Z,1026.78
2022-10-29T04:49:53.017Z,1026.61
2022-10-29T04:50:53.020Z,1026.22
2022-10-29T04:51:53.020Z,1025.85
2022-10-29T04:52:53.045Z,1025.17
2022-10-29T04:53:53.022Z,1024.87
2022-10-29T04:54:53.172Z,1024.63
2022-10-29T04:55:53.024Z,1024.56
2022-10-29T04:56:53.031Z,1024.47
2022-10-29T04:57:53.309Z,1023.98
2022-10-29T04:58:53.057Z,1024.03
2022-10-29T04:59:53.033Z,1023.97
2022-10-29T05:00:53.081Z,1023.76
2022-10-29T05:01:53.038Z,1023.69
2022-10-29T05:02:53.280Z,1023.31
2022-10-29T05:03:54.279Z,1023.18
2022-10-29T05:04:53.042Z,1023.01
2022-10-29T05:05:53.050Z,1022.88
2022-10-29T05:06:53.044Z,1022.66
2022-10-29T05:07:53.068Z,1022.42
2022-10-29T05:08:53.048Z,1022.33
2022-10-29T05:09:53.052Z,1022
2022-10-29T05:10:53.051Z,1022.06
2022-10-29T05:11:53.055Z,1021.91
2022-10-29T05:12:53.247Z,1021.88
2022-10-29T05:13:53.057Z,1021.79
2022-10-29T05:14:53.079Z,1022.02
2022-10-29T05:15:53.676Z,1022.39
2022-10-29T05:16:53.096Z,1022.64
2022-10-29T05:17:53.291Z,1022.76
2022-10-29T05:18:53.065Z,1023.19
2022-10-29T05:19:53.064Z,1023.36
2022-10-29T05:20:53.093Z,1023.62
2022-10-29T05:21:53.077Z,1023.9
2022-10-29T05:22:53.112Z,1023.93
2022-10-29T05:23:53.080Z,1024.15
2022-10-29T05:24:53.073Z,1024.47
2022-10-29T05:25:53.075Z,1024.82
2022-10-29T05:26:53.081Z,1025.03
2022-10-29T05:27:53.296Z,1025.12
2022-10-29T05:28:53.081Z,1025.33
2022-10-29T05:29:53.080Z,1025.63
2022-10-29T05:30:53.127Z,1025.72
2022-10-29T05:31:53.178Z,1026.01
2022-10-29T05:32:53.337Z,1026.01
2022-10-29T05:33:54.018Z,1025.97
2022-10-29T05:34:55.905Z,1026.3
2022-10-29T05:35:53.091Z,1026.67
2022-10-29T05:36:53.095Z,1027.03
2022-10-29T05:37:53.376Z,1027.66
2022-10-29T05:38:53.099Z,1027.84
2022-10-29T05:39:53.099Z,1028.24
2022-10-29T05:40:53.337Z,1028.33
2022-10-29T05:41:53.206Z,1028.74
2022-10-29T05:42:53.203Z,1029.15
2022-10-29T05:43:53.105Z,1029.53
2022-10-29T05:44:53.110Z,1029.96
2022-10-29T05:45:53.109Z,1030.2
2022-10-29T05:46:53.137Z,1030.92
2022-10-29T05:47:53.143Z,1030.87
2022-10-29T05:48:53.147Z,1031.22
2022-10-29T05:49:53.116Z,1031.33
2022-10-29T05:50:53.115Z,1031.3
2022-10-29T05:51:53.186Z,1031.56
2022-10-29T05:52:53.389Z,1031.5
2022-10-29T05:53:53.162Z,1031.55
2022-10-29T05:54:53.124Z,1031.83
2022-10-29T05:55:53.414Z,1031.73
2022-10-29T05:56:53.124Z,1031.76
2022-10-29T05:57:53.153Z,1031.69
2022-10-29T05:58:53.128Z,1031.35
2022-10-29T05:59:53.134Z,1030.89
2022-10-29T06:00:53.142Z,1030.76
2022-10-29T06:01:53.310Z,1030.48
2022-10-29T06:02:53.324Z,1030.41
2022-10-29T06:04:53.141Z,1029.9
2022-10-29T06:05:53.173Z,1029.7
2022-10-29T06:06:56.201Z,1029.49
2022-10-29T06:07:53.194Z,1029.13
2022-10-29T06:08:53.153Z,1029.36
2022-10-29T06:09:53.188Z,1029.56
2022-10-29T06:10:53.151Z,1029.12
2022-10-29T06:11:53.155Z,1029.01
2022-10-29T06:12:53.276Z,1029.37
2022-10-29T06:13:53.157Z,1029
2022-10-29T06:14:53.285Z,1029.2
2022-10-29T06:15:53.160Z,1029.35
2022-10-29T06:16:53.161Z,1029.08
2022-10-29T06:17:55.170Z,1029.08
2022-10-29T06:18:53.164Z,1029.7
2022-10-29T06:19:53.166Z,1029.52
2022-10-29T06:20:53.303Z,1029.98
2022-10-29T06:21:54.140Z,1029.87
2022-10-29T06:22:53.467Z,1029.99
2022-10-29T06:23:53.192Z,1030.38
2022-10-29T06:24:55.383Z,1030.8
2022-10-29T06:25:53.181Z,1031.17
2022-10-29T06:26:53.230Z,1031.41
2022-10-29T06:27:53.181Z,1031.72
2022-10-29T06:28:56.009Z,1032.19
2022-10-29T06:29:53.233Z,1032.56
2022-10-29T06:30:53.191Z,1032.89
2022-10-29T06:31:53.385Z,1033.18
2022-10-29T06:32:53.439Z,1033.97
2022-10-29T06:33:53.217Z,1034.3
2022-10-29T06:34:53.465Z,1034.52
2022-10-29T06:35:53.195Z,1034.64
2022-10-29T06:36:53.304Z,1035.04
2022-10-29T06:37:53.553Z,1035.47
2022-10-29T06:38:53.202Z,1036.02
2022-10-29T06:39:56.222Z,1036.35
2022-10-29T06:40:53.203Z,1036.6
2022-10-29T06:41:53.206Z,1037.15
2022-10-29T06:42:53.204Z,1037.61
2022-10-29T06:43:53.213Z,1038.08
2022-10-29T06:44:53.208Z,1038.45
2022-10-29T06:45:53.208Z,1039.34
2022-10-29T06:46:53.267Z,1040.1
2022-10-29T06:47:53.488Z,1040.44
2022-10-29T06:48:53.214Z,1040.7
2022-10-29T06:49:53.238Z,1041.49
2022-10-29T06:50:53.218Z,1042.17
2022-10-29T06:51:53.221Z,1042.65
2022-10-29T06:52:53.476Z,1043.52
2022-10-29T06:53:53.223Z,1044.09
2022-10-29T06:54:53.309Z,1044.67
2022-10-29T06:55:53.226Z,1045.13
2022-10-29T06:56:53.225Z,1045.93
2022-10-29T06:57:53.228Z,1046.15
2022-10-29T06:58:53.231Z,1046.81
2022-10-29T06:59:53.313Z,1047.68
2022-10-29T07:00:53.325Z,1048.05
2022-10-29T07:01:53.296Z,1048.8
2022-10-29T07:02:53.520Z,1049.24
2022-10-29T07:03:53.237Z,1049.97
2022-10-29T07:04:53.239Z,1050.46
2022-10-29T07:05:53.268Z,1050.89
2022-10-29T07:06:53.449Z,1051.79
2022-10-29T07:07:53.331Z,1052.27
2022-10-29T07:08:53.246Z,1052.61
2022-10-29T07:09:53.248Z,1053.27
2022-10-29T07:10:53.266Z,1053.36
2022-10-29T07:11:53.255Z,1053.92
2022-10-29T07:12:53.251Z,1054.6
2022-10-29T07:13:53.277Z,1054.76
2022-10-29T07:14:53.258Z,1055.24
2022-10-29T07:15:53.259Z,1055.79
2022-10-29T07:16:53.264Z,1056.22
2022-10-29T07:17:53.645Z,1056.96
2022-10-29T07:18:53.287Z,1057.57
2022-10-29T07:19:53.359Z,1058.03
2022-10-29T07:20:53.329Z,1058.34
2022-10-29T07:21:53.371Z,1059.15
2022-10-29T07:22:53.277Z,1059.39
2022-10-29T07:23:53.296Z,1059.97
2022-10-29T07:24:54.847Z,1060.5
2022-10-29T07:25:53.406Z,1060.85
2022-10-29T07:26:53.374Z,1061.67
2022-10-29T07:27:53.358Z,1062
2022-10-29T07:28:53.309Z,1062.94
2022-10-29T07:29:53.281Z,1063.56
2022-10-29T07:30:53.288Z,1064.2
2022-10-29T07:31:53.402Z,1065.17
2022-10-29T07:32:53.416Z,1065.84
2022-10-29T07:33:53.310Z,1066.69
2022-10-29T07:34:53.414Z,1067.38
2022-10-29T07:35:53.296Z,1068.23
2022-10-29T07:36:53.301Z,1068.91
2022-10-29T07:37:53.521Z,1069.85
2022-10-29T07:38:53.317Z,1070.4
2022-10-29T07:39:53.300Z,1071.32
2022-10-29T07:40:53.302Z,1072.15
2022-10-29T07:41:55.272Z,1072.73
2022-10-29T07:42:53.524Z,1073.64
2022-10-29T07:43:53.327Z,1074.22
2022-10-29T07:44:53.313Z,1074.96
2022-10-29T07:45:53.311Z,1075.5
2022-10-29T07:46:53.341Z,1076.27
2022-10-29T07:47:53.311Z,1077
2022-10-29T07:48:53.344Z,1077.55
2022-10-29T07:49:53.316Z,1078.34
2022-10-29T07:50:53.321Z,1079.29
2022-10-29T07:51:53.319Z,1079.87
2022-10-29T07:52:54.557Z,1080.9
2022-10-29T07:53:53.366Z,1081.29
2022-10-29T07:54:53.324Z,1082.1
2022-10-29T07:55:53.322Z,1082.8
2022-10-29T07:56:53.342Z,1083.6
2022-10-29T07:57:53.520Z,1084.36
2022-10-29T07:58:53.353Z,1085.17
2022-10-29T07:59:53.357Z,1086.18
2022-10-29T08:00:53.380Z,1086.76
2022-10-29T08:01:56.539Z,1087.46
2022-10-29T08:02:53.341Z,1088.61
2022-10-29T08:03:53.367Z,1089.19
2022-10-29T08:04:53.340Z,1089.87
2022-10-29T08:05:55.266Z,1090.48
2022-10-29T08:06:53.344Z,1091.2
2022-10-29T08:07:53.538Z,1092.2
2022-10-29T08:08:53.368Z,1092.69
2022-10-29T08:09:53.497Z,1093.4
2022-10-29T08:10:53.353Z,1094.08
2022-10-29T08:11:53.353Z,1094.48
2022-10-29T08:12:53.536Z,1095.22
2022-10-29T08:13:53.384Z,1095.95
2022-10-29T08:14:53.359Z,1096.59
2022-10-29T08:15:53.359Z,1097.15
2022-10-29T08:16:53.366Z,1098
2022-10-29T08:17:53.363Z,1098.92
2022-10-29T08:18:53.390Z,1099.45
2022-10-29T08:19:53.369Z,1100.04
2022-10-29T08:20:53.366Z,1100.67
2022-10-29T08:21:53.368Z,1101.32
2022-10-29T08:22:53.566Z,1101.97
2022-10-29T08:23:53.395Z,1102.52
2022-10-29T08:24:53.376Z,1103.25
2022-10-29T08:25:53.398Z,1103.9
2022-10-29T08:26:53.377Z,1104.4
2022-10-29T08:28:53.401Z,1105.49
2022-10-29T08:29:53.385Z,1106.11
2022-10-29T08:30:53.384Z,1106.71
2022-10-29T08:31:53.388Z,1107.31
2022-10-29T08:32:53.755Z,1107.81
2022-10-29T08:33:54.751Z,1108.54
2022-10-29T08:34:53.392Z,1109.22
2022-10-29T08:35:53.398Z,1109.88
2022-10-29T08:36:53.397Z,1110.57
2022-10-29T08:37:53.397Z,1111.38
2022-10-29T08:38:53.400Z,1112.09
2022-10-29T08:39:53.396Z,1112.76
2022-10-29T08:40:53.398Z,1113.56
2022-10-29T08:41:53.426Z,1114.51
2022-10-29T08:42:53.577Z,1115.26
2022-10-29T08:43:53.438Z,1115.84
2022-10-29T08:44:56.420Z,1116.7
2022-10-29T08:45:53.410Z,1117.37
2022-10-29T08:46:53.422Z,1118.07
2022-10-29T08:47:53.784Z,1118.83
2022-10-29T08:48:53.421Z,1119.5
2022-10-29T08:49:53.415Z,1120.22
2022-10-29T08:50:53.420Z,1121.04
2022-10-29T08:51:53.427Z,1121.84
2022-10-29T08:53:19.338Z,1122.41
2022-10-29T08:54:17.252Z,1123.14
2022-10-29T08:54:53.426Z,1123.79
2022-10-29T08:55:56.435Z,1124.35
2022-10-29T08:56:53.432Z,1125.05
2022-10-29T08:57:53.643Z,1125.57
2022-10-29T08:58:53.433Z,1125.98
2022-10-29T08:59:53.512Z,1126.49
2022-10-29T09:00:53.492Z,1126.96
2022-10-29T09:01:53.725Z,1127.18
2022-10-29T09:02:53.656Z,1127.41
2022-10-29T09:03:56.457Z,1127.83
2022-10-29T09:04:53.466Z,1128.1
2022-10-29T09:05:53.449Z,1128.37
2022-10-29T09:06:56.575Z,1128.47
2022-10-29T09:07:55.177Z,1128.64
2022-10-29T09:08:53.456Z,1128.83
2022-10-29T09:09:53.477Z,1128.97
2022-10-29T09:10:53.454Z,1129.26
2022-10-29T09:11:53.485Z,1129.31
2022-10-29T09:12:53.778Z,1129.58
2022-10-29T09:13:53.492Z,1129.86
2022-10-29T09:14:53.484Z,1129.97
2022-10-29T09:15:57.351Z,1130.19
2022-10-29T09:16:53.466Z,1130.44
2022-10-29T09:17:53.638Z,1130.53
2022-10-29T09:18:53.471Z,1130.6
2022-10-29T09:19:53.492Z,1130.88
2022-10-29T09:20:53.475Z,1130.81
2022-10-29T09:21:53.474Z,1131.01
2022-10-29T09:22:53.472Z,1131.27
2022-10-29T09:23:53.480Z,1131.37
2022-10-29T09:24:53.505Z,1131.54
2022-10-29T09:25:53.478Z,1131.78
2022-10-29T09:26:53.478Z,1131.75
2022-10-29T09:27:53.802Z,1132.03
2022-10-29T09:28:53.483Z,1132.16
2022-10-29T09:29:53.533Z,1132.35
2022-10-29T09:30:53.488Z,1132.34
2022-10-29T09:31:53.490Z,1132.6
2022-10-29T09:32:53.500Z,1132.84
2022-10-29T09:33:55.291Z,1133.07
2022-10-29T09:34:53.522Z,1133.2
2022-10-29T09:35:53.496Z,1133.52
2022-10-29T09:36:53.497Z,1133.9
2022-10-29T09:37:53.654Z,1134.18
2022-10-29T09:38:53.505Z,1134.55
2022-10-29T09:39:53.523Z,1134.97
2022-10-29T09:40:53.503Z,1135.4
2022-10-29T09:41:53.506Z,1136.09
2022-10-29T09:42:53.507Z,1137
2022-10-29T09:43:53.511Z,1137.88
2022-10-29T09:44:53.536Z,1138.59
2022-10-29T09:45:53.553Z,1139.03
2022-10-29T09:46:53.518Z,1139.45
2022-10-29T09:47:53.733Z,1139.76
2022-10-29T09:48:53.547Z,1139.95
2022-10-29T09:49:53.557Z,1140.01
2022-10-29T09:50:53.526Z,1140
2022-10-29T09:51:53.523Z,1139.81
2022-10-29T09:52:53.761Z,1139.55
2022-10-29T09:53:53.533Z,1139.34
2022-10-29T09:54:53.556Z,1139.06
2022-10-29T09:55:53.537Z,1138.26
2022-10-29T09:56:56.038Z,1137.39
2022-10-29T09:57:53.532Z,1136.42
2022-10-29T09:58:53.540Z,1135.35
2022-10-29T09:59:53.559Z,1134.13
2022-10-29T10:00:53.552Z,1132.79
2022-10-29T10:01:53.644Z,1131.13
2022-10-29T10:02:53.607Z,1129.59
2022-10-29T10:03:53.579Z,1127.79
2022-10-29T10:04:53.577Z,1125.93
2022-10-29T10:05:53.551Z,1123.98
2022-10-29T10:06:53.559Z,1122.03
2022-10-29T10:07:53.724Z,1119.75
2022-10-29T10:08:53.557Z,1117.59
2022-10-29T10:09:53.580Z,1115.07
2022-10-29T10:10:53.558Z,1112.8
2022-10-29T10:11:53.560Z,1111.49
2022-10-29T10:12:53.561Z,1109.67
2022-10-29T10:13:53.566Z,1107.94
2022-10-29T10:14:53.623Z,1107.53
2022-10-29T10:15:53.573Z,1106.66
2022-10-29T10:16:53.572Z,1106.42
2022-10-29T10:17:53.686Z,1106.69
2022-10-29T10:18:53.570Z,1106.76
2022-10-29T10:19:53.594Z,1106.47
2022-10-29T10:20:53.579Z,1106.66
2022-10-29T10:21:53.590Z,1106.47
2022-10-29T10:22:53.862Z,1105.93
2022-10-29T10:23:53.582Z,1105.03
2022-10-29T10:24:53.683Z,1104.72
2022-10-29T10:25:53.648Z,1103.34
2022-10-29T10:26:53.593Z,1101.14
2022-10-29T10:27:53.832Z,1098.58
2022-10-29T10:28:56.737Z,1096.34
2022-10-29T10:29:53.621Z,1094.77
2022-10-29T10:30:53.597Z,1092.9
2022-10-29T10:31:53.600Z,1090.69
2022-10-29T10:32:53.852Z,1088.61
2022-10-29T10:33:53.622Z,1085.82
2022-10-29T10:34:53.626Z,1082.61
2022-10-29T10:35:53.611Z,1081.21
2022-10-29T10:36:53.619Z,1078.93
2022-10-29T10:37:53.841Z,1076.29
2022-10-29T10:38:53.613Z,1074.31
2022-10-29T10:39:53.632Z,1072.83
2022-10-29T10:40:53.613Z,1070.59
2022-10-29T10:41:53.619Z,1068.02
2022-10-29T10:42:53.614Z,1066.11
2022-10-29T10:43:53.626Z,1065.26
2022-10-29T10:44:53.640Z,1063.16
2022-10-29T10:45:53.623Z,1060.68
2022-10-29T10:46:53.627Z,1058.68
2022-10-29T10:47:53.903Z,1056.88
2022-10-29T10:48:53.631Z,1055.15
2022-10-29T10:49:53.687Z,1053.24
2022-10-29T10:50:53.629Z,1051.73
2022-10-29T10:51:53.635Z,1050.73
2022-10-29T10:52:53.927Z,1049.05
2022-10-29T10:53:53.660Z,1047.16
2022-10-29T10:54:53.668Z,1045.42
2022-10-29T10:55:53.830Z,1043.31
2022-10-29T10:56:53.642Z,1040.25
2022-10-29T10:57:53.645Z,1038.21
2022-10-29T10:58:53.804Z,1035.97
2022-10-29T10:59:53.682Z,1034.29
2022-10-29T11:00:56.746Z,1033.14
2022-10-29T11:01:53.935Z,1032.49
2022-10-29T11:02:53.965Z,1033.06
2022-10-29T11:03:53.660Z,1033.88
2022-10-29T11:04:53.685Z,1035.12
2022-10-29T11:05:53.684Z,1036.48
2022-10-29T11:06:53.664Z,1038.07
2022-10-29T11:07:53.980Z,1036.41
2022-10-29T11:08:53.666Z,1034.4
2022-10-29T11:09:53.805Z,1033.21
2022-10-29T11:10:53.670Z,1033.53
2022-10-29T11:11:58.762Z,1035.3
2022-10-29T11:12:53.679Z,1036.49
2022-10-29T11:13:53.673Z,1038.13
2022-10-29T11:14:53.700Z,1037.36
2022-10-29T11:15:53.686Z,1036.84
2022-10-29T11:16:56.400Z,1035.65
2022-10-29T11:17:54.400Z,1035.06
2022-10-29T11:18:56.575Z,1034.01
2022-10-29T11:19:53.707Z,1035.11
2022-10-29T11:20:54.723Z,1036.41
2022-10-29T11:21:53.717Z,1037.58
2022-10-29T11:22:57.033Z,1038.17
2022-10-29T11:23:53.698Z,1039.03
2022-10-29T11:24:53.714Z,1039.94
2022-10-29T11:25:53.696Z,1041.18
2022-10-29T11:26:53.706Z,1042.66
2022-10-29T11:27:53.711Z,1043.91
2022-10-29T11:28:53.703Z,1045.51
2022-10-29T11:29:53.724Z,1046.74
2022-10-29T11:30:53.705Z,1048.21
2022-10-29T11:31:53.709Z,1049.14
2022-10-29T11:32:53.833Z,1050.3
2022-10-29T11:33:56.479Z,1051.1
2022-10-29T11:34:53.736Z,1052.35
2022-10-29T11:35:54.933Z,1053.12
2022-10-29T11:36:53.717Z,1054.38
2022-10-29T11:37:53.998Z,1055.26
2022-10-29T11:38:53.721Z,1056.41
2022-10-29T11:39:53.776Z,1057.39
2022-10-29T11:40:53.725Z,1058.49
2022-10-29T11:41:53.726Z,1058.95
2022-10-29T11:42:53.735Z,1060.06
2022-10-29T11:43:53.730Z,1060.71
2022-10-29T11:44:56.922Z,1061.36
2022-10-29T11:45:53.732Z,1062.01
2022-10-29T11:46:53.733Z,1062.34
2022-10-29T11:47:53.992Z,1062.77
2022-10-29T11:48:53.743Z,1063.24
2022-10-29T11:49:53.743Z,1063.82
2022-10-29T11:50:53.741Z,1064.3
2022-10-29T11:51:53.743Z,1064.76
2022-10-29T11:52:54.008Z,1065.03
2022-10-29T11:53:53.785Z,1065.14
2022-10-29T11:54:53.754Z,1065.15
2022-10-29T11:55:53.752Z,1064.76
2022-10-29T11:56:53.755Z,1064.62
2022-10-29T11:57:53.754Z,1063.86
2022-10-29T11:58:53.762Z,1062.88
2022-10-29T11:59:53.757Z,1062.01
2022-10-29T12:00:53.761Z,1060.89
2022-10-29T12:01:53.826Z,1058.94
2022-10-29T12:02:54.093Z,1057.94
2022-10-29T12:03:53.766Z,1056.12
2022-10-29T12:04:53.770Z,1054.37
2022-10-29T12:05:53.773Z,1052.71
2022-10-29T12:06:53.778Z,1052.02
2022-10-29T12:07:54.014Z,1051.09
2022-10-29T12:08:53.778Z,1050.23
2022-10-29T12:09:53.802Z,1050.02
2022-10-29T12:10:53.783Z,1049.81
2022-10-29T12:11:53.784Z,1049.93
2022-10-29T12:12:53.781Z,1050.23
2022-10-29T12:13:53.789Z,1050.18
2022-10-29T12:14:53.789Z,1050.56
2022-10-29T12:15:53.788Z,1049.97
2022-10-29T12:16:53.792Z,1049.71
2022-10-29T12:17:54.045Z,1049.71
2022-10-29T12:18:53.795Z,1049.75
2022-10-29T12:19:53.850Z,1049.99
2022-10-29T12:20:53.803Z,1050.29